createdAt,value
2018-04-08T00:00:47.598Z,0.00
2018-04-08T00:01:47.640Z,0.00
2018-04-08T00:02:47.687Z,0.00
2018-04-08T00:03:47.734Z,0.00
2018-04-08T00:04:47.810Z,0.00
2018-04-08T00:05:47.860Z,0.00
2018-04-08T00:06:47.880Z,0.00
2018-04-08T00:07:47.932Z,0.00
2018-04-08T00:08:47.979Z,0.00
2018-04-08T00:09:48.027Z,0.00
2018-04-08T00:10:48.110Z,0.00
2018-04-08T00:11:48.121Z,0.00
2018-04-08T00:12:48.169Z,0.00
2018-04-08T00:13:48.217Z,0.00
2018-04-08T00:14:48.268Z,0.00
2018-04-08T00:15:48.340Z,0.00
2018-04-08T00:16:48.363Z,0.00
2018-04-08T00:17:48.413Z,0.00
2018-04-08T00:18:48.459Z,0.00
2018-04-08T00:19:48.508Z,0.00
2018-04-08T00:20:48.612Z,0.00
2018-04-08T00:21:48.604Z,0.00
2018-04-08T00:22:48.654Z,0.00
2018-04-08T00:23:48.705Z,0.00
2018-04-08T00:24:48.748Z,0.00
2018-04-08T00:25:48.836Z,0.00
2018-04-08T00:26:48.870Z,0.00
2018-04-08T00:27:48.894Z,0.00
2018-04-08T00:28:48.941Z,0.00
2018-04-08T00:29:48.990Z,0.00
2018-04-08T00:30:49.038Z,0.00
2018-04-08T00:31:49.117Z,0.00
2018-04-08T00:32:49.133Z,0.00
2018-04-08T00:33:49.183Z,0.00
2018-04-08T00:34:49.232Z,0.00
2018-04-08T00:35:49.279Z,0.00
2018-04-08T00:36:49.360Z,0.00
2018-04-08T00:37:49.375Z,0.00
2018-04-08T00:38:49.423Z,0.00
2018-04-08T00:39:49.471Z,0.00
2018-04-08T00:40:49.519Z,0.00
2018-04-08T00:41:49.614Z,0.00
2018-04-08T00:42:49.617Z,0.00
2018-04-08T00:43:49.662Z,0.00
2018-04-08T00:44:49.714Z,0.00
2018-04-08T00:45:49.763Z,0.00
2018-04-08T00:46:49.831Z,0.00
2018-04-08T00:47:49.884Z,0.00
2018-04-08T00:48:49.900Z,0.00
2018-04-08T00:49:49.952Z,0.00
2018-04-08T00:50:50.001Z,0.00
2018-04-08T00:51:50.043Z,0.00
2018-04-08T00:52:50.135Z,0.00
2018-04-08T00:53:50.145Z,0.00
2018-04-08T00:54:50.185Z,0.00
2018-04-08T00:55:50.236Z,0.00
2018-04-08T00:56:50.280Z,0.00
2018-04-08T00:57:50.361Z,0.00
2018-04-08T00:58:50.413Z,0.00
2018-04-08T00:59:50.422Z,0.00
2018-04-08T01:00:50.467Z,0.00
2018-04-08T01:01:50.520Z,0.00
2018-04-08T01:02:50.564Z,0.00
2018-04-08T01:03:50.633Z,0.00
2018-04-08T01:04:50.681Z,0.00
2018-04-08T01:05:50.707Z,0.00
2018-04-08T01:06:50.751Z,0.00
2018-04-08T01:07:50.797Z,0.00
2018-04-08T01:08:50.850Z,0.00
2018-04-08T01:09:50.916Z,0.00
2018-04-08T01:10:50.939Z,0.00
2018-04-08T01:11:50.983Z,0.00
2018-04-08T01:12:51.032Z,0.00
2018-04-08T01:13:51.080Z,0.00
2018-04-08T01:14:51.162Z,0.00
2018-04-08T01:15:51.172Z,0.00
2018-04-08T01:16:51.220Z,0.00
2018-04-08T01:17:51.264Z,0.00
2018-04-08T01:18:51.316Z,0.00
2018-04-08T01:19:51.383Z,0.00
2018-04-08T01:20:51.408Z,0.00
2018-04-08T01:21:51.452Z,0.00
2018-04-08T01:22:51.501Z,0.00
2018-04-08T01:23:51.552Z,0.00
2018-04-08T01:24:51.618Z,0.00
2018-04-08T01:25:51.651Z,0.00
2018-04-08T01:26:51.708Z,0.00
2018-04-08T01:27:51.735Z,0.00
2018-04-08T01:28:51.778Z,0.00
2018-04-08T01:29:51.824Z,0.00
2018-04-08T01:30:51.872Z,0.00
2018-04-08T01:31:51.947Z,0.00
2018-04-08T01:32:51.964Z,0.00
2018-04-08T01:33:52.017Z,0.00
2018-04-08T01:34:52.060Z,0.00
2018-04-08T01:35:52.105Z,0.00
2018-04-08T01:36:52.174Z,0.00
2018-04-08T01:37:52.199Z,0.00
2018-04-08T01:38:52.243Z,0.00
2018-04-08T01:39:52.290Z,0.00
2018-04-08T01:40:52.336Z,0.00
2018-04-08T01:41:52.428Z,0.00
2018-04-08T01:42:52.431Z,0.00
2018-04-08T01:43:52.478Z,0.00
2018-04-08T01:44:52.523Z,0.00
2018-04-08T01:45:52.570Z,0.00
2018-04-08T01:46:52.653Z,0.00
2018-04-08T01:47:52.663Z,0.00
2018-04-08T01:48:52.708Z,0.00
2018-04-08T01:49:52.759Z,0.00
2018-04-08T01:50:52.803Z,0.00
2018-04-08T01:51:52.878Z,0.00
2018-04-08T01:52:52.919Z,0.00
2018-04-08T01:53:52.939Z,0.00
2018-04-08T01:54:52.990Z,0.00
2018-04-08T01:55:53.033Z,0.00
2018-04-08T01:56:53.078Z,0.00
2018-04-08T01:57:53.170Z,0.00
2018-04-08T01:58:53.171Z,0.00
2018-04-08T01:59:53.221Z,0.00
2018-04-08T02:00:53.263Z,0.00
2018-04-08T02:01:53.310Z,0.00
2018-04-08T02:02:53.381Z,0.00
2018-04-08T02:03:53.425Z,0.00
2018-04-08T02:04:53.458Z,0.00
2018-04-08T02:05:53.494Z,0.00
2018-04-08T02:06:53.544Z,0.00
2018-04-08T02:07:53.587Z,0.00
2018-04-08T02:08:53.659Z,0.00
2018-04-08T02:09:53.677Z,0.00
2018-04-08T02:10:53.727Z,0.00
2018-04-08T02:11:53.770Z,0.00
2018-04-08T02:12:53.818Z,0.00
2018-04-08T02:13:53.885Z,0.00
2018-04-08T02:14:53.911Z,0.00
2018-04-08T02:15:53.962Z,0.00
2018-04-08T02:16:54.001Z,0.00
2018-04-08T02:17:54.053Z,0.00
2018-04-08T02:18:54.119Z,0.00
2018-04-08T02:19:54.139Z,0.00
2018-04-08T02:20:54.188Z,0.00
2018-04-08T02:21:54.232Z,0.00
2018-04-08T02:22:54.276Z,0.00
2018-04-08T02:23:55.422Z,0.00
2018-04-08T02:24:54.369Z,0.00
2018-04-08T02:25:54.414Z,0.00
2018-04-08T02:26:54.463Z,0.00
2018-04-08T02:27:54.507Z,0.00
2018-04-08T02:28:54.587Z,0.00
2018-04-08T02:29:54.634Z,0.00
2018-04-08T02:30:54.647Z,0.00
2018-04-08T02:31:54.690Z,0.00
2018-04-08T02:32:54.736Z,0.00
2018-04-08T02:33:54.784Z,0.00
2018-04-08T02:34:54.857Z,0.00
2018-04-08T02:35:54.875Z,0.00
2018-04-08T02:36:54.920Z,0.00
2018-04-08T02:37:54.968Z,0.00
2018-04-08T02:38:55.014Z,0.00
2018-04-08T02:39:55.086Z,0.00
2018-04-08T02:40:55.107Z,0.00
2018-04-08T02:41:55.163Z,0.00
2018-04-08T02:42:55.193Z,0.00
2018-04-08T02:43:55.243Z,0.00
2018-04-08T02:44:55.326Z,0.00
2018-04-08T02:45:55.332Z,0.00
2018-04-08T02:46:55.379Z,0.00
2018-04-08T02:47:55.421Z,0.00
2018-04-08T02:48:55.468Z,0.00
2018-04-08T02:49:55.547Z,0.00
2018-04-08T02:50:55.562Z,0.00
2018-04-08T02:51:55.606Z,0.00
2018-04-08T02:52:55.654Z,0.00
2018-04-08T02:53:55.698Z,0.00
2018-04-08T02:54:55.777Z,0.00
2018-04-08T02:55:55.788Z,0.00
2018-04-08T02:56:55.840Z,0.00
2018-04-08T02:57:55.882Z,0.00
2018-04-08T02:58:55.926Z,0.00
2018-04-08T02:59:56.012Z,0.00
2018-04-08T03:00:56.023Z,0.00
2018-04-08T03:01:56.074Z,0.00
2018-04-08T03:02:56.106Z,0.00
2018-04-08T03:03:56.151Z,0.00
2018-04-08T03:04:56.258Z,0.00
2018-04-08T03:05:56.243Z,0.00
2018-04-08T03:06:56.289Z,0.00
2018-04-08T03:07:56.339Z,0.00
2018-04-08T03:08:56.379Z,0.00
2018-04-08T03:09:56.454Z,0.00
2018-04-08T03:10:56.473Z,0.00
2018-04-08T03:11:56.518Z,0.00
2018-04-08T03:12:56.585Z,0.00
2018-04-08T03:13:56.609Z,0.00
2018-04-08T03:14:56.653Z,0.00
2018-04-08T03:15:56.699Z,0.00
2018-04-08T03:16:56.743Z,0.00
2018-04-08T03:17:56.815Z,0.00
2018-04-08T03:18:56.833Z,0.00
2018-04-08T03:19:56.879Z,0.00
2018-04-08T03:20:56.926Z,0.00
2018-04-08T03:21:56.993Z,0.00
2018-04-08T03:22:57.058Z,0.00
2018-04-08T03:23:57.061Z,0.00
2018-04-08T03:24:57.107Z,0.00
2018-04-08T03:25:57.150Z,0.00
2018-04-08T03:26:57.198Z,0.00
2018-04-08T03:27:57.273Z,0.00
2018-04-08T03:28:57.289Z,0.00
2018-04-08T03:29:57.337Z,0.00
2018-04-08T03:30:57.378Z,0.00
2018-04-08T03:31:57.423Z,0.00
2018-04-08T03:32:57.506Z,0.00
2018-04-08T03:33:57.515Z,0.00
2018-04-08T03:34:57.559Z,0.00
2018-04-08T03:35:57.605Z,0.00
2018-04-08T03:36:57.649Z,0.00
2018-04-08T03:37:57.743Z,0.00
2018-04-08T03:38:57.743Z,0.00
2018-04-08T03:39:57.785Z,0.00
2018-04-08T03:40:57.833Z,0.00
2018-04-08T03:41:57.875Z,0.00
2018-04-08T03:42:57.955Z,0.00
2018-04-08T03:43:57.966Z,0.00
2018-04-08T03:44:58.013Z,0.00
2018-04-08T03:45:58.056Z,0.00
2018-04-08T03:46:58.107Z,0.00
2018-04-08T03:47:58.172Z,0.00
2018-04-08T03:48:58.237Z,0.00
2018-04-08T03:49:58.239Z,0.00
2018-04-08T03:50:58.282Z,0.00
2018-04-08T03:51:58.328Z,0.00
2018-04-08T03:52:58.372Z,0.00
2018-04-08T03:53:58.457Z,0.00
2018-04-08T03:54:58.463Z,0.00
2018-04-08T03:55:58.507Z,0.00
2018-04-08T03:56:58.556Z,0.00
2018-04-08T03:57:58.606Z,0.00
2018-04-08T03:58:58.670Z,0.00
2018-04-08T03:59:58.717Z,0.00
2018-04-08T04:00:58.732Z,0.00
2018-04-08T04:01:58.781Z,0.00
2018-04-08T04:02:58.831Z,0.00
2018-04-08T04:03:58.868Z,0.00
2018-04-08T04:04:58.952Z,0.00
2018-04-08T04:05:58.961Z,0.00
2018-04-08T04:06:59.004Z,0.00
2018-04-08T04:07:59.048Z,0.00
2018-04-08T04:08:59.095Z,0.00
2018-04-08T04:09:59.167Z,0.00
2018-04-08T04:10:59.184Z,0.00
2018-04-08T04:11:59.232Z,0.00
2018-04-08T04:12:59.276Z,0.00
2018-04-08T04:13:59.319Z,0.00
2018-04-08T04:14:59.393Z,0.00
2018-04-08T04:15:59.410Z,0.00
2018-04-08T04:16:59.453Z,4.00
2018-04-08T04:17:59.506Z,4.00
2018-04-08T04:18:59.544Z,4.00
2018-04-08T04:19:59.629Z,4.00
2018-04-08T04:20:59.635Z,4.00
2018-04-08T04:21:59.680Z,4.00
2018-04-08T04:22:59.725Z,8.00
2018-04-08T04:23:59.769Z,8.00
2018-04-08T04:24:59.837Z,12.00
2018-04-08T04:25:59.858Z,12.00
2018-04-08T04:26:59.927Z,12.00
2018-04-08T04:27:59.951Z,16.00
2018-04-08T04:28:59.994Z,20.00
2018-04-08T04:30:00.038Z,24.00
2018-04-08T04:31:00.112Z,32.00
2018-04-08T04:32:00.129Z,36.00
2018-04-08T04:33:00.172Z,40.00
2018-04-08T04:34:00.216Z,52.00
2018-04-08T04:35:00.262Z,56.00
2018-04-08T04:36:00.349Z,68.00
2018-04-08T04:37:00.351Z,76.00
2018-04-08T04:38:00.397Z,88.00
2018-04-08T04:39:00.442Z,108.00
2018-04-08T04:40:00.490Z,120.00
2018-04-08T04:41:00.553Z,136.00
2018-04-08T04:42:00.578Z,156.00
2018-04-08T04:43:00.666Z,176.00
2018-04-08T04:44:00.664Z,200.00
2018-04-08T04:45:00.708Z,224.00
2018-04-08T04:46:00.756Z,252.00
2018-04-08T04:47:00.800Z,280.00
2018-04-08T04:48:00.870Z,312.00
2018-04-08T04:49:00.888Z,340.00
2018-04-08T04:50:00.933Z,372.00
2018-04-08T04:51:00.981Z,408.00
2018-04-08T04:52:01.068Z,448.00
2018-04-08T04:53:01.067Z,488.00
2018-04-08T04:54:01.112Z,528.00
2018-04-08T04:55:01.158Z,576.00
2018-04-08T04:56:01.205Z,624.00
2018-04-08T04:57:01.272Z,668.00
2018-04-08T04:58:01.291Z,716.00
2018-04-08T04:59:01.339Z,768.00
2018-04-08T05:00:01.407Z,820.00
2018-04-08T05:01:01.425Z,876.00
2018-04-08T05:02:01.471Z,924.00
2018-04-08T05:03:01.515Z,984.00
2018-04-08T05:04:03.425Z,1040.00
2018-04-08T05:05:01.632Z,1096.00
2018-04-08T05:06:01.651Z,1156.00
2018-04-08T05:07:01.694Z,1212.00
2018-04-08T05:08:01.738Z,1268.00
2018-04-08T05:09:01.821Z,1332.00
2018-04-08T05:10:01.833Z,1392.00
2018-04-08T05:11:01.873Z,1452.00
2018-04-08T05:12:01.964Z,1512.00
2018-04-08T05:13:01.963Z,1572.00
2018-04-08T05:14:02.029Z,1636.00
2018-04-08T05:15:02.054Z,1700.00
2018-04-08T05:16:02.122Z,1760.00
2018-04-08T05:17:02.142Z,1824.00
2018-04-08T05:18:02.191Z,1892.00
2018-04-08T05:19:02.233Z,1948.00
2018-04-08T05:20:02.277Z,2012.00
2018-04-08T05:21:02.347Z,2076.00
2018-04-08T05:22:02.364Z,2132.00
2018-04-08T05:23:02.415Z,2192.00
2018-04-08T05:24:02.454Z,2252.00
2018-04-08T05:25:02.499Z,2316.00
2018-04-08T05:26:02.581Z,2372.00
2018-04-08T05:27:02.588Z,2432.00
2018-04-08T05:28:02.633Z,2492.00
2018-04-08T05:29:02.678Z,2552.00
2018-04-08T05:30:02.724Z,2604.00
2018-04-08T05:31:02.797Z,2668.00
2018-04-08T05:32:02.814Z,2728.00
2018-04-08T05:33:02.858Z,2784.00
2018-04-08T05:34:02.910Z,2844.00
2018-04-08T05:35:02.948Z,2900.00
2018-04-08T05:36:03.022Z,2956.00
2018-04-08T05:37:03.039Z,3012.00
2018-04-08T05:38:03.080Z,3068.00
2018-04-08T05:39:03.128Z,3124.00
2018-04-08T05:40:03.175Z,3180.00
2018-04-08T05:41:03.289Z,3232.00
2018-04-08T05:42:03.283Z,3280.00
2018-04-08T05:43:03.306Z,3340.00
2018-04-08T05:44:03.353Z,3392.00
2018-04-08T05:45:03.403Z,3448.00
2018-04-08T05:46:03.472Z,3504.00
2018-04-08T05:47:03.487Z,3560.00
2018-04-08T05:48:03.534Z,3616.00
2018-04-08T05:49:03.577Z,3664.00
2018-04-08T05:50:03.621Z,3712.00
2018-04-08T05:51:03.688Z,3764.00
2018-04-08T05:52:03.711Z,3820.00
2018-04-08T05:53:03.779Z,3868.00
2018-04-08T05:54:03.799Z,3924.00
2018-04-08T05:55:03.850Z,3972.00
2018-04-08T05:56:03.891Z,4020.00
2018-04-08T05:57:03.936Z,4076.00
2018-04-08T05:58:04.025Z,4120.00
2018-04-08T05:59:04.029Z,4172.00
2018-04-08T06:00:04.074Z,4220.00
2018-04-08T06:01:04.117Z,4268.00
2018-04-08T06:02:04.161Z,4320.00
2018-04-08T06:03:04.240Z,4368.00
2018-04-08T06:04:04.252Z,4416.00
2018-04-08T06:05:04.308Z,4472.00
2018-04-08T06:06:04.351Z,4528.00
2018-04-08T06:07:04.389Z,4560.00
2018-04-08T06:08:04.459Z,4600.00
2018-04-08T06:09:04.504Z,4648.00
2018-04-08T06:10:04.536Z,4696.00
2018-04-08T06:11:04.575Z,4744.00
2018-04-08T06:12:04.617Z,4796.00
2018-04-08T06:13:04.660Z,4840.00
2018-04-08T06:14:04.733Z,4892.00
2018-04-08T06:15:04.777Z,4944.00
2018-04-08T06:16:04.799Z,4992.00
2018-04-08T06:17:04.844Z,5048.00
2018-04-08T06:18:04.892Z,5100.00
2018-04-08T06:19:04.958Z,5156.00
2018-04-08T06:20:05.007Z,5216.00
2018-04-08T06:21:05.027Z,5272.00
2018-04-08T06:22:05.071Z,5332.00
2018-04-08T06:23:05.118Z,5388.00
2018-04-08T06:24:05.188Z,5444.00
2018-04-08T06:25:05.233Z,5504.00
2018-04-08T06:26:05.256Z,5560.00
2018-04-08T06:27:05.302Z,5616.00
2018-04-08T06:28:05.358Z,5680.00
2018-04-08T06:29:05.437Z,5740.00
2018-04-08T06:30:05.439Z,5812.00
2018-04-08T06:31:05.487Z,5880.00
2018-04-08T06:32:05.531Z,5956.00
2018-04-08T06:33:05.577Z,6028.00
2018-04-08T06:34:05.651Z,6108.00
2018-04-08T06:35:05.693Z,6184.00
2018-04-08T06:36:05.718Z,6252.00
2018-04-08T06:37:05.763Z,6332.00
2018-04-08T06:38:05.810Z,6416.00
2018-04-08T06:39:05.856Z,9096.00
2018-04-08T06:40:05.932Z,10948.00
2018-04-08T06:41:05.948Z,9680.00
2018-04-08T06:42:05.998Z,9500.00
2018-04-08T06:43:06.044Z,11668.00
2018-04-08T06:44:06.089Z,17344.00
2018-04-08T06:45:06.167Z,19232.00
2018-04-08T06:46:06.184Z,20480.00
2018-04-08T06:47:06.229Z,20928.00
2018-04-08T06:48:06.278Z,22272.00
2018-04-08T06:49:06.322Z,21440.00
2018-04-08T06:50:06.399Z,21504.00
2018-04-08T06:51:06.448Z,24512.00
2018-04-08T06:52:06.467Z,26400.00
2018-04-08T06:53:06.512Z,32672.00
2018-04-08T06:54:06.560Z,29824.00
2018-04-08T06:55:06.609Z,33056.00
2018-04-08T06:56:06.689Z,42112.00
2018-04-08T06:57:06.700Z,45120.00
2018-04-08T06:58:06.750Z,35840.00
2018-04-08T06:59:06.801Z,28800.00
2018-04-08T07:00:06.845Z,31072.00
2018-04-08T07:01:06.932Z,34240.00
2018-04-08T07:02:06.942Z,31584.00
2018-04-08T07:03:06.991Z,29920.00
2018-04-08T07:04:07.041Z,33376.00
2018-04-08T07:05:07.087Z,35552.00
2018-04-08T07:06:07.188Z,37696.00
2018-04-08T07:07:07.206Z,39840.00
2018-04-08T07:08:07.235Z,39680.00
2018-04-08T07:09:07.281Z,39456.00
2018-04-08T07:10:07.331Z,45728.00
2018-04-08T07:11:07.378Z,55232.00
2018-04-08T07:12:07.461Z,56160.00
2018-04-08T07:13:07.477Z,44192.00
2018-04-08T07:14:07.529Z,38144.00
2018-04-08T07:15:07.575Z,46080.00
2018-04-08T07:16:07.628Z,57728.00
2018-04-08T07:17:07.696Z,47456.00
2018-04-08T07:18:07.729Z,39456.00
2018-04-08T07:19:07.773Z,43936.00
2018-04-08T07:20:07.818Z,50144.00
2018-04-08T07:21:07.867Z,47936.00
2018-04-08T07:22:07.941Z,41856.00
2018-04-08T07:23:07.996Z,43744.00
2018-04-08T07:24:08.019Z,53408.00
2018-04-08T07:25:08.064Z,57888.00
2018-04-08T07:26:08.124Z,51936.00
2018-04-08T07:27:08.165Z,44512.00
2018-04-08T07:28:08.237Z,42592.00
2018-04-08T07:29:08.262Z,44192.00
2018-04-08T07:30:08.314Z,45440.00
2018-04-08T07:31:08.364Z,44128.00
2018-04-08T07:32:08.412Z,46112.00
2018-04-08T07:33:08.484Z,48704.00
2018-04-08T07:34:08.511Z,49760.00
2018-04-08T07:35:08.560Z,50432.00
2018-04-08T07:36:08.610Z,46880.00
2018-04-08T07:37:08.664Z,43552.00
2018-04-08T07:38:08.745Z,45280.00
2018-04-08T07:39:08.759Z,48480.00
2018-04-08T07:40:08.821Z,50304.00
2018-04-08T07:41:08.859Z,55072.00
2018-04-08T07:42:09.735Z,58944.00
2018-04-08T07:43:08.995Z,52032.00
2018-04-08T07:44:09.042Z,39616.00
2018-04-08T07:45:09.062Z,36704.00
2018-04-08T07:46:09.110Z,42688.00
2018-04-08T07:47:09.164Z,52000.00
2018-04-08T07:48:09.238Z,57568.00
2018-04-08T07:49:09.295Z,56320.00
2018-04-08T07:50:09.314Z,56224.00
2018-04-08T07:51:09.364Z,58144.00
2018-04-08T07:52:09.417Z,57856.00
2018-04-08T07:53:09.461Z,55776.00
2018-04-08T07:54:09.553Z,55648.00
2018-04-08T07:55:09.566Z,56352.00
2018-04-08T07:56:09.616Z,59296.00
2018-04-08T07:57:09.667Z,62720.00
2018-04-08T07:58:09.716Z,62944.00
2018-04-08T07:59:09.798Z,59232.00
2018-04-08T08:00:09.844Z,54400.00
2018-04-08T08:01:09.871Z,52832.00
2018-04-08T08:02:09.920Z,48384.00
2018-04-08T08:03:09.971Z,44576.00
2018-04-08T08:04:10.029Z,45216.00
2018-04-08T08:05:10.099Z,48160.00
2018-04-08T08:06:10.134Z,52320.00
2018-04-08T08:07:10.180Z,60864.00
2018-04-08T08:08:10.232Z,66976.00
2018-04-08T08:09:10.283Z,65184.00
2018-04-08T08:10:10.363Z,61408.00
2018-04-08T08:11:10.410Z,52992.00
2018-04-08T08:12:10.436Z,46304.00
2018-04-08T08:13:10.495Z,47520.00
2018-04-08T08:14:10.537Z,57344.00
2018-04-08T08:15:10.590Z,72096.00
2018-04-08T08:16:10.664Z,84320.00
2018-04-08T08:17:10.694Z,83296.00
2018-04-08T08:18:10.761Z,67168.00
2018-04-08T08:19:10.796Z,59552.00
2018-04-08T08:20:10.853Z,66752.00
2018-04-08T08:21:10.934Z,77696.00
2018-04-08T08:22:10.952Z,74304.00
2018-04-08T08:23:11.004Z,58432.00
2018-04-08T08:24:11.060Z,56192.00
2018-04-08T08:25:11.107Z,68960.00
2018-04-08T08:26:11.202Z,93056.00
2018-04-08T08:27:11.214Z,108736.00
2018-04-08T08:28:11.272Z,103936.00
2018-04-08T08:29:11.319Z,88800.00
2018-04-08T08:30:11.368Z,73824.00
2018-04-08T08:31:11.466Z,64768.00
2018-04-08T08:32:11.472Z,69056.00
2018-04-08T08:33:11.525Z,74080.00
2018-04-08T08:34:11.574Z,73152.00
2018-04-08T08:35:11.628Z,67008.00
2018-04-08T08:36:11.715Z,61280.00
2018-04-08T08:37:11.733Z,58944.00
2018-04-08T08:38:11.836Z,62720.00
2018-04-08T08:39:11.839Z,74784.00
2018-04-08T08:40:11.889Z,90624.00
2018-04-08T08:41:11.959Z,100256.00
2018-04-08T08:42:11.989Z,102528.00
2018-04-08T08:43:12.065Z,99776.00
2018-04-08T08:44:12.094Z,89952.00
2018-04-08T08:45:12.146Z,79328.00
2018-04-08T08:46:12.219Z,73216.00
2018-04-08T08:47:12.248Z,69568.00
2018-04-08T08:48:12.325Z,66912.00
2018-04-08T08:49:12.352Z,62880.00
2018-04-08T08:50:12.404Z,62272.00
2018-04-08T08:51:12.454Z,67360.00
2018-04-08T08:52:12.538Z,74112.00
2018-04-08T08:53:12.558Z,81824.00
2018-04-08T08:54:12.632Z,90592.00
2018-04-08T08:55:12.661Z,102880.00
2018-04-08T08:56:12.713Z,111712.00
2018-04-08T08:57:12.833Z,115776.00
2018-04-08T08:58:12.826Z,113824.00
2018-04-08T08:59:12.867Z,110592.00
2018-04-08T09:00:12.927Z,107264.00
2018-04-08T09:01:12.970Z,102016.00
2018-04-08T09:02:13.054Z,101216.00
2018-04-08T09:03:13.074Z,100192.00
2018-04-08T09:04:13.123Z,100192.00
2018-04-08T09:05:13.174Z,96800.00
2018-04-08T09:06:13.226Z,91104.00
2018-04-08T09:07:13.300Z,82976.00
2018-04-08T09:08:13.335Z,77088.00
2018-04-08T09:09:13.378Z,75936.00
2018-04-08T09:10:13.431Z,77152.00
2018-04-08T09:11:13.506Z,79744.00
2018-04-08T09:12:13.536Z,83552.00
2018-04-08T09:13:13.612Z,86400.00
2018-04-08T09:14:13.638Z,86240.00
2018-04-08T09:15:13.688Z,81696.00
2018-04-08T09:16:13.764Z,78432.00
2018-04-08T09:17:13.793Z,77280.00
2018-04-08T09:18:13.871Z,82208.00
2018-04-08T09:19:13.895Z,89792.00
2018-04-08T09:20:13.950Z,99072.00
2018-04-08T09:21:14.002Z,100416.00
2018-04-08T09:22:14.056Z,91424.00
2018-04-08T09:23:14.130Z,83072.00
2018-04-08T09:24:14.180Z,82240.00
2018-04-08T09:25:14.213Z,81728.00
2018-04-08T09:26:14.260Z,83904.00
2018-04-08T09:27:14.311Z,89792.00
2018-04-08T09:28:14.434Z,90880.00
2018-04-08T09:29:14.414Z,87488.00
2018-04-08T09:30:14.467Z,82528.00
2018-04-08T09:31:14.517Z,82144.00
2018-04-08T09:32:14.595Z,88288.00
2018-04-08T09:33:14.646Z,98528.00
2018-04-08T09:34:14.673Z,108480.00
2018-04-08T09:35:14.726Z,106560.00
2018-04-08T09:36:14.847Z,103040.00
2018-04-08T09:37:14.829Z,100800.00
2018-04-08T09:38:14.908Z,102496.00
2018-04-08T09:39:14.976Z,106432.00
2018-04-08T09:40:14.985Z,112032.00
2018-04-08T09:41:15.049Z,112224.00
2018-04-08T09:42:15.094Z,108896.00
2018-04-08T09:43:15.145Z,104864.00
2018-04-08T09:44:15.228Z,102944.00
2018-04-08T09:45:15.242Z,101216.00
2018-04-08T09:46:15.298Z,100192.00
2018-04-08T09:47:15.352Z,96928.00
2018-04-08T09:48:15.399Z,93248.00
2018-04-08T09:49:15.469Z,89312.00
2018-04-08T09:50:15.505Z,86976.00
2018-04-08T09:51:15.553Z,86784.00
2018-04-08T09:52:15.604Z,90048.00
2018-04-08T09:53:15.656Z,86816.00
2018-04-08T09:54:15.742Z,84864.00
2018-04-08T09:55:15.784Z,85216.00
2018-04-08T09:56:15.812Z,89248.00
2018-04-08T09:57:15.864Z,93248.00
2018-04-08T09:58:15.917Z,98848.00
2018-04-08T09:59:15.978Z,106912.00
2018-04-08T10:00:16.060Z,112832.00
2018-04-08T10:01:16.076Z,115584.00
2018-04-08T10:02:16.124Z,114432.00
2018-04-08T10:03:16.180Z,110880.00
2018-04-08T10:04:16.277Z,108000.00
2018-04-08T10:05:16.311Z,102016.00
2018-04-08T10:06:16.342Z,96512.00
2018-04-08T10:07:16.384Z,95488.00
2018-04-08T10:08:16.443Z,96928.00
2018-04-08T10:09:16.491Z,102240.00
2018-04-08T10:10:16.568Z,103936.00
2018-04-08T10:11:16.596Z,101984.00
2018-04-08T10:12:16.648Z,99392.00
2018-04-08T10:13:16.703Z,98304.00
2018-04-08T10:14:16.752Z,97472.00
2018-04-08T10:15:16.846Z,99808.00
2018-04-08T10:16:16.860Z,97216.00
2018-04-08T10:17:16.912Z,90848.00
2018-04-08T10:18:16.962Z,82592.00
2018-04-08T10:19:17.014Z,70432.00
2018-04-08T10:20:17.101Z,66688.00
2018-04-08T10:21:17.125Z,69920.00
2018-04-08T10:22:17.171Z,78432.00
2018-04-08T10:23:17.281Z,88928.00
2018-04-08T10:24:17.276Z,99104.00
2018-04-08T10:25:17.361Z,110176.00
2018-04-08T10:26:17.384Z,117312.00
2018-04-08T10:27:17.438Z,121056.00
2018-04-08T10:28:17.491Z,119840.00
2018-04-08T10:29:17.580Z,111776.00
2018-04-08T10:30:17.655Z,99712.00
2018-04-08T10:31:17.649Z,91072.00
2018-04-08T10:32:17.723Z,84448.00
2018-04-08T10:33:17.753Z,83936.00
2018-04-08T10:34:17.804Z,88448.00
2018-04-08T10:35:17.857Z,99136.00
2018-04-08T10:36:17.911Z,107456.00
2018-04-08T10:37:17.995Z,105280.00
2018-04-08T10:38:18.017Z,99904.00
2018-04-08T10:39:18.068Z,93536.00
2018-04-08T10:40:18.123Z,85696.00
2018-04-08T10:41:18.178Z,80608.00
2018-04-08T10:42:18.250Z,74912.00
2018-04-08T10:43:18.282Z,73184.00
2018-04-08T10:44:18.333Z,72544.00
2018-04-08T10:45:18.391Z,72832.00
2018-04-08T10:46:18.480Z,73408.00
2018-04-08T10:47:18.492Z,71616.00
2018-04-08T10:48:18.548Z,71456.00
2018-04-08T10:49:18.596Z,72960.00
2018-04-08T10:50:18.648Z,77504.00
2018-04-08T10:51:18.735Z,86368.00
2018-04-08T10:52:18.757Z,95136.00
2018-04-08T10:53:18.810Z,101504.00
2018-04-08T10:54:18.862Z,105344.00
2018-04-08T10:55:18.915Z,105184.00
2018-04-08T10:56:19.002Z,103072.00
2018-04-08T10:57:19.025Z,99200.00
2018-04-08T10:58:19.083Z,98592.00
2018-04-08T10:59:19.132Z,98624.00
2018-04-08T11:00:19.182Z,95808.00
2018-04-08T11:01:19.284Z,95200.00
2018-04-08T11:02:19.291Z,95968.00
2018-04-08T11:03:19.343Z,96960.00
2018-04-08T11:04:19.397Z,97344.00
2018-04-08T11:05:19.448Z,95584.00
2018-04-08T11:06:19.528Z,91904.00
2018-04-08T11:07:19.559Z,88768.00
2018-04-08T11:08:19.612Z,89984.00
2018-04-08T11:09:19.663Z,92096.00
2018-04-08T11:10:19.720Z,92128.00
2018-04-08T11:11:19.803Z,96736.00
2018-04-08T11:12:19.825Z,104544.00
2018-04-08T11:13:19.880Z,115264.00
2018-04-08T11:14:19.937Z,126016.00
2018-04-08T11:15:19.990Z,131744.00
2018-04-08T11:16:20.088Z,132256.00
2018-04-08T11:17:20.100Z,125152.00
2018-04-08T11:18:20.149Z,115232.00
2018-04-08T11:19:20.204Z,105888.00
2018-04-08T11:20:20.260Z,98816.00
2018-04-08T11:21:20.335Z,97440.00
2018-04-08T11:22:20.367Z,102848.00
2018-04-08T11:23:20.450Z,110336.00
2018-04-08T11:24:20.478Z,119200.00
2018-04-08T11:25:20.528Z,121376.00
2018-04-08T11:26:20.583Z,119552.00
2018-04-08T11:27:20.634Z,114048.00
2018-04-08T11:28:20.713Z,107488.00
2018-04-08T11:29:20.743Z,97920.00
2018-04-08T11:30:20.797Z,96416.00
2018-04-08T11:31:20.852Z,97024.00
2018-04-08T11:32:20.904Z,100928.00
2018-04-08T11:33:20.982Z,109088.00
2018-04-08T11:34:21.010Z,112800.00
2018-04-08T11:35:21.067Z,110496.00
2018-04-08T11:36:21.119Z,106176.00
2018-04-08T11:37:21.173Z,103168.00
2018-04-08T11:38:21.254Z,98368.00
2018-04-08T11:39:21.281Z,92480.00
2018-04-08T11:40:21.338Z,89056.00
2018-04-08T11:41:21.390Z,87520.00
2018-04-08T11:42:21.443Z,86624.00
2018-04-08T11:43:21.531Z,87296.00
2018-04-08T11:44:21.552Z,87680.00
2018-04-08T11:45:21.606Z,93888.00
2018-04-08T11:46:21.662Z,104224.00
2018-04-08T11:47:21.718Z,113792.00
2018-04-08T11:48:21.812Z,119936.00
2018-04-08T11:49:21.829Z,121856.00
2018-04-08T11:50:21.881Z,121216.00
2018-04-08T11:51:21.936Z,117952.00
2018-04-08T11:52:21.991Z,117568.00
2018-04-08T11:53:22.083Z,118912.00
2018-04-08T11:54:22.102Z,120160.00
2018-04-08T11:55:22.157Z,119712.00
2018-04-08T11:56:22.210Z,118112.00
2018-04-08T11:57:22.266Z,113664.00
2018-04-08T11:58:22.350Z,107520.00
2018-04-08T11:59:22.376Z,100192.00
2018-04-08T12:00:22.437Z,94080.00
2018-04-08T12:01:22.536Z,95008.00
2018-04-08T12:02:22.553Z,97632.00
2018-04-08T12:03:22.603Z,101184.00
2018-04-08T12:04:22.658Z,104384.00
2018-04-08T12:05:22.713Z,101728.00
2018-04-08T12:06:22.808Z,95584.00
2018-04-08T12:07:22.833Z,87584.00
2018-04-08T12:08:22.887Z,74304.00
2018-04-08T12:09:22.946Z,62624.00
2018-04-08T12:10:22.997Z,53344.00
2018-04-08T12:11:23.071Z,54368.00
2018-04-08T12:12:23.139Z,62112.00
2018-04-08T12:13:23.163Z,75680.00
2018-04-08T12:14:23.220Z,87008.00
2018-04-08T12:15:23.275Z,90848.00
2018-04-08T12:16:23.338Z,87936.00
2018-04-08T12:17:23.439Z,85312.00
2018-04-08T12:18:23.454Z,84992.00
2018-04-08T12:19:23.502Z,89312.00